createdAt,value
2018-09-12T00:00:17.862Z,1017.41
2018-09-12T00:01:17.840Z,1017.38
2018-09-12T00:02:17.820Z,1017.42
2018-09-12T00:03:17.800Z,1017.44
2018-09-12T00:04:17.781Z,1017.44
2018-09-12T00:05:17.760Z,1017.42
2018-09-12T00:06:17.742Z,1017.46
2018-09-12T00:07:17.721Z,1017.45
2018-09-12T00:08:17.700Z,1017.46
2018-09-12T00:09:17.681Z,1017.41
2018-09-12T00:10:17.660Z,1017.42
2018-09-12T00:11:17.640Z,1017.44
2018-09-12T00:12:17.618Z,1017.46
2018-09-12T00:13:17.599Z,1017.48
2018-09-12T00:14:17.580Z,1017.44
2018-09-12T00:15:17.562Z,1017.42
2018-09-12T00:16:17.540Z,1017.39
2018-09-12T00:17:17.519Z,1017.42
2018-09-12T00:18:17.498Z,1017.42
2018-09-12T00:19:17.478Z,1017.40
2018-09-12T00:20:17.458Z,1017.45
2018-09-12T00:21:17.671Z,1017.45
2018-09-12T00:22:17.418Z,1017.43
2018-09-12T00:23:17.399Z,1017.42
2018-09-12T00:24:17.379Z,1017.44
2018-09-12T00:25:17.360Z,1017.41
2018-09-12T00:26:17.338Z,1017.40
2018-09-12T00:27:17.317Z,1017.44
2018-09-12T00:28:17.296Z,1017.42
2018-09-12T00:29:17.277Z,1017.42
2018-09-12T00:30:17.259Z,1017.44
2018-09-12T00:31:17.237Z,1017.46
2018-09-12T00:32:17.214Z,1017.44
2018-09-12T00:33:17.199Z,1017.43
2018-09-12T00:34:17.175Z,1017.38
2018-09-12T00:35:17.155Z,1017.36
2018-09-12T00:36:17.134Z,1017.39
2018-09-12T00:37:17.114Z,1017.42
2018-09-12T00:38:17.092Z,1017.42
2018-09-12T00:39:17.074Z,1017.39
2018-09-12T00:40:17.054Z,1017.42
2018-09-12T00:41:17.029Z,1017.42
2018-09-12T00:42:17.011Z,1017.41
2018-09-12T00:43:16.997Z,1017.39
2018-09-12T00:44:16.969Z,1017.37
2018-09-12T00:45:16.948Z,1017.41
2018-09-12T00:46:16.931Z,1017.41
2018-09-12T00:47:16.910Z,1017.41
2018-09-12T00:48:16.886Z,1017.42
2018-09-12T00:49:16.867Z,1017.40
2018-09-12T00:50:16.847Z,1017.38
2018-09-12T00:51:16.826Z,1017.37
2018-09-12T00:52:16.803Z,1017.39
2018-09-12T00:53:16.783Z,1017.35
2018-09-12T00:54:16.763Z,1017.34
2018-09-12T00:55:16.743Z,1017.36
2018-09-12T00:56:16.720Z,1017.33
2018-09-12T00:57:16.700Z,1017.31
2018-09-12T00:58:16.679Z,1017.33
2018-09-12T00:59:16.660Z,1017.30
2018-09-12T01:00:16.637Z,1017.30
2018-09-12T01:01:16.614Z,1017.29
2018-09-12T01:02:16.595Z,1017.25
2018-09-12T01:03:16.574Z,1017.31
2018-09-12T01:04:16.552Z,1017.27
2018-09-12T01:05:16.531Z,1017.28
2018-09-12T01:06:16.510Z,1017.27
2018-09-12T01:07:16.491Z,1017.26
2018-09-12T01:08:16.467Z,1017.23
2018-09-12T01:09:16.446Z,1017.27
2018-09-12T01:10:16.426Z,1017.26
2018-09-12T01:11:16.406Z,1017.25
2018-09-12T01:12:16.384Z,1017.25
2018-09-12T01:13:16.363Z,1017.26
2018-09-12T01:14:16.343Z,1017.21
2018-09-12T01:15:16.326Z,1017.29
2018-09-12T01:16:16.300Z,1017.23
2018-09-12T01:17:16.276Z,1017.24
2018-09-12T01:18:16.258Z,1017.29
2018-09-12T01:19:16.236Z,1017.28
2018-09-12T01:20:16.213Z,1017.29
2018-09-12T01:21:16.192Z,1017.26
2018-09-12T01:22:16.170Z,1017.29
2018-09-12T01:23:16.149Z,1017.29
2018-09-12T01:24:16.129Z,1017.26
2018-09-12T01:25:16.107Z,1017.25
2018-09-12T01:26:16.086Z,1017.25
2018-09-12T01:27:16.066Z,1017.24
2018-09-12T01:28:16.045Z,1017.28
2018-09-12T01:29:16.029Z,1017.26
2018-09-12T01:30:16.002Z,1017.26
2018-09-12T01:31:15.981Z,1017.27
2018-09-12T01:32:15.956Z,1017.26
2018-09-12T01:33:15.937Z,1017.26
2018-09-12T01:34:15.916Z,1017.29
2018-09-12T01:35:15.894Z,1017.28
2018-09-12T01:36:15.873Z,1017.23
2018-09-12T01:37:15.851Z,1017.23
2018-09-12T01:38:15.837Z,1017.28
2018-09-12T01:39:15.809Z,1017.26
2018-09-12T01:40:15.787Z,1017.26
2018-09-12T01:41:15.765Z,1017.30
2018-09-12T01:42:15.744Z,1017.25
2018-09-12T01:43:15.723Z,1017.25
2018-09-12T01:44:15.701Z,1017.23
2018-09-12T01:45:15.680Z,1017.25
2018-09-12T01:46:15.657Z,1017.25
2018-09-12T01:47:15.636Z,1017.25
2018-09-12T01:48:15.614Z,1017.25
2018-09-12T01:49:15.593Z,1017.23
2018-09-12T01:50:15.572Z,1017.22
2018-09-12T01:51:15.549Z,1017.22
2018-09-12T01:52:15.528Z,1017.22
2018-09-12T01:53:15.505Z,1017.19
2018-09-12T01:54:15.485Z,1017.21
2018-09-12T01:55:15.464Z,1017.20
2018-09-12T01:56:15.442Z,1017.18
2018-09-12T01:57:15.419Z,1017.19
2018-09-12T01:58:15.400Z,1017.19
2018-09-12T01:59:15.376Z,1017.13
2018-09-12T02:00:15.355Z,1017.11
2018-09-12T02:01:15.333Z,1017.07
2018-09-12T02:02:15.311Z,1017.06
2018-09-12T02:03:15.290Z,1017.02
2018-09-12T02:04:15.273Z,1017.03
2018-09-12T02:05:15.247Z,1017.02
2018-09-12T02:06:15.226Z,1017.01
2018-09-12T02:07:15.251Z,1017.00
2018-09-12T02:08:15.186Z,1017.02
2018-09-12T02:09:15.166Z,1017.03
2018-09-12T02:10:15.143Z,1017.06
2018-09-12T02:11:15.118Z,1017.07
2018-09-12T02:12:15.094Z,1017.08
2018-09-12T02:13:15.072Z,1017.07
2018-09-12T02:14:15.051Z,1017.10
2018-09-12T02:15:15.030Z,1017.11
2018-09-12T02:16:15.006Z,1017.10
2018-09-12T02:17:14.992Z,1017.12
2018-09-12T02:18:14.965Z,1017.09
2018-09-12T02:19:14.943Z,1017.11
2018-09-12T02:20:14.921Z,1017.11
2018-09-12T02:21:14.898Z,1017.12
2018-09-12T02:22:14.879Z,1017.13
2018-09-12T02:23:14.856Z,1017.08
2018-09-12T02:24:14.833Z,1017.09
2018-09-12T02:25:14.813Z,1017.13
2018-09-12T02:26:14.790Z,1017.11
2018-09-12T02:27:14.768Z,1017.10
2018-09-12T02:28:14.750Z,1017.09
2018-09-12T02:29:14.726Z,1017.08
2018-09-12T02:30:14.705Z,1017.09
2018-09-12T02:31:14.687Z,1017.07
2018-09-12T02:32:14.665Z,1017.07
2018-09-12T02:33:14.639Z,1017.07
2018-09-12T02:34:14.617Z,1017.07
2018-09-12T02:35:14.600Z,1017.09
2018-09-12T02:36:14.575Z,1017.08
2018-09-12T02:37:14.553Z,1017.10
2018-09-12T02:38:14.531Z,1017.12
2018-09-12T02:39:14.509Z,1017.13
2018-09-12T02:40:14.489Z,1017.09
2018-09-12T02:41:14.465Z,1017.09
2018-09-12T02:42:14.443Z,1017.10
2018-09-12T02:43:14.424Z,1017.10
2018-09-12T02:44:14.402Z,1017.14
2018-09-12T02:45:14.379Z,1017.08
2018-09-12T02:46:14.359Z,1017.08
2018-09-12T02:47:14.339Z,1017.08
2018-09-12T02:48:14.314Z,1017.08
2018-09-12T02:49:14.294Z,1017.11
2018-09-12T02:50:14.270Z,1017.09
2018-09-12T02:51:14.249Z,1017.13
2018-09-12T02:52:14.227Z,1017.10
2018-09-12T02:53:14.205Z,1017.14
2018-09-12T02:54:14.183Z,1017.13
2018-09-12T02:55:14.163Z,1017.12
2018-09-12T02:56:14.140Z,1017.11
2018-09-12T02:57:14.117Z,1017.09
2018-09-12T02:58:14.102Z,1017.13
2018-09-12T02:59:14.075Z,1017.09
2018-09-12T03:00:14.054Z,1017.13
2018-09-12T03:01:14.033Z,1017.10
2018-09-12T03:02:14.012Z,1017.11
2018-09-12T03:03:13.989Z,1017.10
2018-09-12T03:04:13.965Z,1017.12
2018-09-12T03:05:13.944Z,1017.10
2018-09-12T03:06:13.923Z,1017.07
2018-09-12T03:07:13.902Z,1017.08
2018-09-12T03:08:13.881Z,1017.06
2018-09-12T03:09:13.859Z,1017.08
2018-09-12T03:10:13.836Z,1017.08
2018-09-12T03:11:13.814Z,1017.03
2018-09-12T03:12:13.793Z,1017.08
2018-09-12T03:13:13.772Z,1017.07
2018-09-12T03:14:13.750Z,1017.09
2018-09-12T03:15:13.729Z,1017.09
2018-09-12T03:16:13.707Z,1017.02
2018-09-12T03:17:13.684Z,1017.07
2018-09-12T03:18:13.664Z,1017.07
2018-09-12T03:19:13.643Z,1017.07
2018-09-12T03:20:13.621Z,1017.06
2018-09-12T03:21:13.598Z,1017.03
2018-09-12T03:22:13.578Z,1017.03
2018-09-12T03:23:13.555Z,1017.04
2018-09-12T03:24:13.534Z,1016.99
2018-09-12T03:25:13.513Z,1016.99
2018-09-12T03:26:13.495Z,1016.97
2018-09-12T03:27:13.471Z,1016.93
2018-09-12T03:28:13.456Z,1016.96
2018-09-12T03:29:13.431Z,1016.94
2018-09-12T03:30:13.406Z,1016.98
2018-09-12T03:31:13.387Z,1017.00
2018-09-12T03:32:13.364Z,1016.97
2018-09-12T03:33:13.343Z,1016.95
2018-09-12T03:34:13.322Z,1016.98
2018-09-12T03:35:13.299Z,1016.94
2018-09-12T03:36:13.277Z,1016.92
2018-09-12T03:37:13.260Z,1016.94
2018-09-12T03:38:13.236Z,1016.93
2018-09-12T03:39:13.215Z,1016.90
2018-09-12T03:40:13.219Z,1016.88
2018-09-12T03:41:13.177Z,1016.87
2018-09-12T03:42:13.160Z,1016.87
2018-09-12T03:43:13.132Z,1016.87
2018-09-12T03:44:13.109Z,1016.84
2018-09-12T03:45:13.087Z,1016.87
2018-09-12T03:46:13.068Z,1016.83
2018-09-12T03:47:13.048Z,1016.85
2018-09-12T03:48:13.150Z,1016.88
2018-09-12T03:49:13.004Z,1016.85
2018-09-12T03:50:12.981Z,1016.85
2018-09-12T03:51:12.962Z,1016.84
2018-09-12T03:52:12.940Z,1016.80
2018-09-12T03:53:12.920Z,1016.79
2018-09-12T03:54:12.899Z,1016.77
2018-09-12T03:55:12.879Z,1016.80
2018-09-12T03:56:12.857Z,1016.78
2018-09-12T03:57:12.836Z,1016.77
2018-09-12T03:58:12.816Z,1016.77
2018-09-12T03:59:12.794Z,1016.72
2018-09-12T04:00:12.773Z,1016.75
2018-09-12T04:01:12.753Z,1016.73
2018-09-12T04:02:12.732Z,1016.74
2018-09-12T04:03:12.711Z,1016.69
2018-09-12T04:04:12.690Z,1016.70
2018-09-12T04:05:12.669Z,1016.67
2018-09-12T04:06:12.648Z,1016.67
2018-09-12T04:07:12.628Z,1016.64
2018-09-12T04:08:12.608Z,1016.57
2018-09-12T04:09:12.584Z,1016.55
2018-09-12T04:10:12.570Z,1016.57
2018-09-12T04:11:12.546Z,1016.53
2018-09-12T04:12:12.528Z,1016.54
2018-09-12T04:13:12.508Z,1016.49
2018-09-12T04:14:12.482Z,1016.51
2018-09-12T04:15:12.463Z,1016.48
2018-09-12T04:16:12.440Z,1016.50
2018-09-12T04:17:12.419Z,1016.48
2018-09-12T04:18:12.398Z,1016.48
2018-09-12T04:19:12.383Z,1016.47
2018-09-12T04:20:12.357Z,1016.44
2018-09-12T04:21:12.336Z,1016.47
2018-09-12T04:22:12.315Z,1016.51
2018-09-12T04:23:12.294Z,1016.48
2018-09-12T04:24:12.360Z,1016.49
2018-09-12T04:25:12.253Z,1016.44
2018-09-12T04:26:12.235Z,1016.44
2018-09-12T04:27:12.214Z,1016.45
2018-09-12T04:28:12.193Z,1016.40
2018-09-12T04:29:12.172Z,1016.42
2018-09-12T04:30:12.154Z,1016.40
2018-09-12T04:31:12.132Z,1016.43
2018-09-12T04:32:12.113Z,1016.44
2018-09-12T04:33:12.091Z,1016.43
2018-09-12T04:34:12.070Z,1016.41
2018-09-12T04:35:12.050Z,1016.43
2018-09-12T04:36:12.029Z,1016.43
2018-09-12T04:37:12.008Z,1016.47
2018-09-12T04:38:11.988Z,1016.45
2018-09-12T04:39:11.969Z,1016.44
2018-09-12T04:40:11.947Z,1016.41
2018-09-12T04:41:11.927Z,1016.43
2018-09-12T04:42:11.907Z,1016.46
2018-09-12T04:43:11.887Z,1016.46
2018-09-12T04:44:11.866Z,1016.47
2018-09-12T04:45:11.846Z,1016.53
2018-09-12T04:46:11.826Z,1016.47
2018-09-12T04:47:11.806Z,1016.51
2018-09-12T04:48:11.783Z,1016.53
2018-09-12T04:49:11.763Z,1016.53
2018-09-12T04:50:11.745Z,1016.55
2018-09-12T04:51:11.728Z,1016.54
2018-09-12T04:52:11.703Z,1016.58
2018-09-12T04:53:11.684Z,1016.59
2018-09-12T04:54:11.666Z,1016.54
2018-09-12T04:55:11.642Z,1016.58
2018-09-12T04:56:11.622Z,1016.59
2018-09-12T04:57:11.601Z,1016.59
2018-09-12T04:58:11.581Z,1016.56
2018-09-12T04:59:11.560Z,1016.58
2018-09-12T05:00:11.540Z,1016.54
2018-09-12T05:01:11.519Z,1016.58
2018-09-12T05:02:11.506Z,1016.55
2018-09-12T05:03:11.478Z,1016.56
2018-09-12T05:04:11.458Z,1016.55
2018-09-12T05:05:11.438Z,1016.58
2018-09-12T05:06:11.418Z,1016.59
2018-09-12T05:07:11.398Z,1016.58
2018-09-12T05:08:11.377Z,1016.57
2018-09-12T05:09:11.361Z,1016.60
2018-09-12T05:10:11.385Z,1016.58
2018-09-12T05:11:11.316Z,1016.60
2018-09-12T05:12:11.295Z,1016.56
2018-09-12T05:13:11.275Z,1016.57
2018-09-12T05:14:11.254Z,1016.54
2018-09-12T05:15:11.234Z,1016.56
2018-09-12T05:16:11.214Z,1016.58
2018-09-12T05:17:11.192Z,1016.56
2018-09-12T05:18:11.172Z,1016.57
2018-09-12T05:19:11.152Z,1016.54
2018-09-12T05:20:11.130Z,1016.57
2018-09-12T05:21:11.112Z,1016.55
2018-09-12T05:22:11.090Z,1016.52
2018-09-12T05:23:11.070Z,1016.58
2018-09-12T05:24:11.048Z,1016.54
2018-09-12T05:25:11.027Z,1016.57
2018-09-12T05:26:11.007Z,1016.56
2018-09-12T05:27:10.989Z,1016.58
2018-09-12T05:28:10.967Z,1016.58
2018-09-12T05:29:10.945Z,1016.58
2018-09-12T05:30:10.931Z,1016.59
2018-09-12T05:31:10.906Z,1016.58
2018-09-12T05:32:10.885Z,1016.63
2018-09-12T05:33:10.864Z,1016.58
2018-09-12T05:34:10.845Z,1016.59
2018-09-12T05:35:10.826Z,1016.62
2018-09-12T05:36:10.810Z,1016.62
2018-09-12T05:37:10.783Z,1016.63
2018-09-12T05:38:10.764Z,1016.66
2018-09-12T05:39:10.745Z,1016.68
2018-09-12T05:40:10.722Z,1016.66
2018-09-12T05:41:10.704Z,1016.66
2018-09-12T05:42:10.682Z,1016.69
2018-09-12T05:43:10.662Z,1016.67
2018-09-12T05:44:10.641Z,1016.70
2018-09-12T05:45:10.627Z,1016.75
2018-09-12T05:46:10.600Z,1016.73
2018-09-12T05:47:10.580Z,1016.71
2018-09-12T05:48:10.560Z,1016.71
2018-09-12T05:49:10.539Z,1016.70
2018-09-12T05:50:10.560Z,1016.65
2018-09-12T05:51:10.501Z,1016.69
2018-09-12T05:52:10.486Z,1016.69
2018-09-12T05:53:10.459Z,1016.65
2018-09-12T05:54:10.439Z,1016.66
2018-09-12T05:55:10.419Z,1016.71
2018-09-12T05:56:10.399Z,1016.76
2018-09-12T05:57:10.379Z,1016.80
2018-09-12T05:58:10.360Z,1016.73
2018-09-12T05:59:10.340Z,1016.78
2018-09-12T06:00:10.320Z,1016.77
2018-09-12T06:01:10.298Z,1016.80
2018-09-12T06:02:10.281Z,1016.74
2018-09-12T06:03:10.260Z,1016.81
2018-09-12T06:04:10.239Z,1016.83
2018-09-12T06:05:10.220Z,1016.84
2018-09-12T06:06:10.199Z,1016.81
2018-09-12T06:07:10.323Z,1016.85
2018-09-12T06:08:10.158Z,1016.84
2018-09-12T06:09:10.139Z,1016.82
2018-09-12T06:10:10.121Z,1016.86
2018-09-12T06:11:10.099Z,1016.85
2018-09-12T06:12:10.078Z,1016.87
2018-09-12T06:13:10.059Z,1016.90
2018-09-12T06:14:10.081Z,1016.91
2018-09-12T06:15:10.020Z,1016.91
2018-09-12T06:16:09.999Z,1016.89
2018-09-12T06:17:09.979Z,1016.94
2018-09-12T06:18:09.959Z,1016.98
2018-09-12T06:19:09.939Z,1016.95
2018-09-12T06:20:09.919Z,1016.93
2018-09-12T06:21:09.898Z,1016.96
2018-09-12T06:22:09.879Z,1016.95
2018-09-12T06:23:09.860Z,1016.93
2018-09-12T06:24:09.840Z,1016.91
2018-09-12T06:25:09.820Z,1016.90
2018-09-12T06:26:09.799Z,1016.92
2018-09-12T06:27:09.786Z,1016.94
2018-09-12T06:28:09.760Z,1016.92
2018-09-12T06:29:09.744Z,1016.92
2018-09-12T06:30:09.721Z,1016.90
2018-09-12T06:31:09.703Z,1016.86
2018-09-12T06:32:09.682Z,1016.86
2018-09-12T06:33:09.662Z,1016.87
2018-09-12T06:34:09.644Z,1016.82
2018-09-12T06:35:09.624Z,1016.82
2018-09-12T06:36:09.604Z,1016.80
2018-09-12T06:37:09.585Z,1016.84
2018-09-12T06:38:09.567Z,1016.85
2018-09-12T06:39:09.546Z,1016.87
2018-09-12T06:40:09.526Z,1016.85
2018-09-12T06:41:09.507Z,1016.82
2018-09-12T06:42:09.489Z,1016.84
2018-09-12T06:43:09.468Z,1016.84
2018-09-12T06:44:09.459Z,1016.86
2018-09-12T06:45:09.431Z,1016.88
2018-09-12T06:46:09.411Z,1016.84
2018-09-12T06:47:09.394Z,1016.83
2018-09-12T06:48:09.373Z,1016.89
2018-09-12T06:49:09.354Z,1016.94
2018-09-12T06:50:09.335Z,1016.96
2018-09-12T06:51:09.317Z,1016.95
2018-09-12T06:52:09.295Z,1016.95
2018-09-12T06:53:09.276Z,1016.97
2018-09-12T06:54:09.260Z,1016.96
2018-09-12T06:55:09.238Z,1016.97
2018-09-12T06:56:09.218Z,1017.04
2018-09-12T06:57:09.201Z,1017.06
2018-09-12T06:58:09.180Z,1017.07
2018-09-12T06:59:09.161Z,1017.01
2018-09-12T07:00:09.142Z,1017.05
2018-09-12T07:01:09.190Z,1017.06
2018-09-12T07:02:09.103Z,1017.08
2018-09-12T07:03:09.084Z,1017.12
2018-09-12T07:04:09.065Z,1017.08
2018-09-12T07:05:09.046Z,1017.09
2018-09-12T07:06:09.025Z,1017.09
2018-09-12T07:07:09.006Z,1017.14
2018-09-12T07:08:08.985Z,1017.19
2018-09-12T07:09:08.966Z,1017.20
2018-09-12T07:10:08.946Z,1017.22
2018-09-12T07:11:08.925Z,1017.24
2018-09-12T07:12:08.907Z,1017.21
2018-09-12T07:13:08.887Z,1017.18
2018-09-12T07:14:08.931Z,1017.19
2018-09-12T07:15:08.847Z,1017.16
2018-09-12T07:16:08.826Z,1017.12
2018-09-12T07:17:08.809Z,1017.16
2018-09-12T07:18:08.790Z,1017.21
2018-09-12T07:19:08.768Z,1017.19
2018-09-12T07:20:08.750Z,1017.18
2018-09-12T07:21:08.730Z,1017.19
2018-09-12T07:22:08.710Z,1017.17
2018-09-12T07:23:08.692Z,1017.15
2018-09-12T07:24:08.671Z,1017.16
2018-09-12T07:25:08.652Z,1017.16
2018-09-12T07:26:08.633Z,1017.10
2018-09-12T07:27:08.615Z,1017.16
2018-09-12T07:28:08.594Z,1017.14
2018-09-12T07:29:08.576Z,1017.16
2018-09-12T07:30:08.558Z,1017.15
2018-09-12T07:31:08.538Z,1017.18
2018-09-12T07:32:08.519Z,1017.17
2018-09-12T07:33:08.499Z,1017.19
2018-09-12T07:34:08.481Z,1017.12
2018-09-12T07:35:08.464Z,1017.21
2018-09-12T07:36:08.443Z,1017.20
2018-09-12T07:37:08.424Z,1017.22
2018-09-12T07:38:08.407Z,1017.14
2018-09-12T07:39:08.388Z,1017.13
2018-09-12T07:40:08.369Z,1017.20
2018-09-12T07:41:08.350Z,1017.15
2018-09-12T07:42:08.333Z,1017.13
2018-09-12T07:43:08.315Z,1017.17
2018-09-12T07:44:08.296Z,1017.21
2018-09-12T07:45:08.284Z,1017.17
2018-09-12T07:46:08.262Z,1017.11
2018-09-12T07:47:08.245Z,1017.10
2018-09-12T07:48:08.228Z,1017.09
2018-09-12T07:49:08.281Z,1017.10
2018-09-12T07:50:08.194Z,1017.12
2018-09-12T07:51:08.178Z,1017.13
2018-09-12T07:52:08.160Z,1017.16
2018-09-12T07:53:08.145Z,1017.19
2018-09-12T07:54:08.129Z,1017.24
2018-09-12T07:55:08.124Z,1017.27
2018-09-12T07:56:08.196Z,1017.26
2018-09-12T07:57:08.081Z,1017.25
2018-09-12T07:58:08.064Z,1017.30
2018-09-12T07:59:08.050Z,1017.32
2018-09-12T08:00:08.043Z,1017.30
2018-09-12T08:01:08.019Z,1017.27
2018-09-12T08:02:08.002Z,1017.28
2018-09-12T08:03:07.986Z,1017.35
2018-09-12T08:04:07.972Z,1017.42
2018-09-12T08:05:07.991Z,1017.48
2018-09-12T08:06:07.940Z,1017.50
2018-09-12T08:07:07.923Z,1017.50
2018-09-12T08:08:07.905Z,1017.50
2018-09-12T08:09:07.890Z,1017.53
2018-09-12T08:10:07.875Z,1017.57
2018-09-12T08:11:07.858Z,1017.57
2018-09-12T08:12:07.876Z,1017.59
2018-09-12T08:13:07.823Z,1017.57
2018-09-12T08:14:07.808Z,1017.56
2018-09-12T08:15:07.789Z,1017.59
2018-09-12T08:16:07.771Z,1017.64
2018-09-12T08:17:07.762Z,1017.67
2018-09-12T08:18:07.736Z,1017.68
2018-09-12T08:19:07.812Z,1017.71
2018-09-12T08:20:07.699Z,1017.78
2018-09-12T08:21:07.680Z,1017.80
2018-09-12T08:22:07.661Z,1017.82
2018-09-12T08:23:07.644Z,1017.81
2018-09-12T08:24:07.623Z,1017.79
2018-09-12T08:25:07.607Z,1017.76
2018-09-12T08:26:07.592Z,1017.75
2018-09-12T08:27:07.570Z,1017.77
2018-09-12T08:28:07.550Z,1017.81
2018-09-12T08:29:07.532Z,1017.77
2018-09-12T08:30:07.512Z,1017.81
2018-09-12T08:31:07.501Z,1017.86
2018-09-12T08:32:07.474Z,1017.86
2018-09-12T08:33:07.456Z,1017.85
2018-09-12T08:34:07.435Z,1017.89
2018-09-12T08:35:07.417Z,1018.01
2018-09-12T08:36:07.397Z,1017.99
2018-09-12T08:37:07.378Z,1018.02
2018-09-12T08:38:07.361Z,1018.02
2018-09-12T08:39:07.339Z,1018.00
2018-09-12T08:40:07.321Z,1017.96
2018-09-12T08:41:07.300Z,1017.97
2018-09-12T08:42:07.284Z,1017.98
2018-09-12T08:43:07.267Z,1018.05
2018-09-12T08:44:07.241Z,1018.06
2018-09-12T08:45:07.222Z,1018.08
2018-09-12T08:46:07.203Z,1018.07
2018-09-12T08:47:07.184Z,1018.08
2018-09-12T08:48:07.162Z,1018.12
2018-09-12T08:49:07.144Z,1018.13
2018-09-12T08:50:07.124Z,1018.12
2018-09-12T08:51:07.105Z,1018.15
2018-09-12T08:52:07.084Z,1018.14
2018-09-12T08:53:07.064Z,1018.13
2018-09-12T08:54:07.045Z,1018.12
2018-09-12T08:55:07.024Z,1018.09
2018-09-12T08:56:07.005Z,1018.08
2018-09-12T08:57:06.984Z,1018.06
2018-09-12T08:58:06.965Z,1018.04
2018-09-12T08:59:06.945Z,1018.00
2018-09-12T09:00:06.949Z,1017.97
2018-09-12T09:01:06.905Z,1017.98
2018-09-12T09:02:06.885Z,1017.94
2018-09-12T09:03:06.864Z,1017.92
2018-09-12T09:04:06.915Z,1017.90
2018-09-12T09:05:06.824Z,1017.89
2018-09-12T09:06:06.804Z,1017.91
2018-09-12T09:07:06.784Z,1017.91
2018-09-12T09:08:06.765Z,1017.93
2018-09-12T09:09:06.744Z,1017.96
2018-09-12T09:10:06.726Z,1017.95
2018-09-12T09:11:06.707Z,1017.95
2018-09-12T09:12:06.691Z,1017.92
2018-09-12T09:13:06.668Z,1017.93
2018-09-12T09:14:06.650Z,1017.93
2018-09-12T09:15:06.632Z,1017.86
2018-09-12T09:16:06.614Z,1017.87
2018-09-12T09:17:06.604Z,1017.87
2018-09-12T09:18:06.576Z,1017.87
2018-09-12T09:19:06.559Z,1017.83
2018-09-12T09:20:06.540Z,1017.87
2018-09-12T09:21:06.520Z,1017.89
2018-09-12T09:22:06.504Z,1017.86
2018-09-12T09:23:06.485Z,1017.90
2018-09-12T09:24:06.466Z,1017.92
2018-09-12T09:25:06.448Z,1017.97
2018-09-12T09:26:06.430Z,1017.94
2018-09-12T09:27:06.412Z,1017.97
2018-09-12T09:28:06.394Z,1017.95
2018-09-12T09:29:06.378Z,1017.95
2018-09-12T09:30:06.359Z,1018.00
2018-09-12T09:31:06.340Z,1018.02
2018-09-12T09:32:06.322Z,1018.01
2018-09-12T09:33:06.305Z,1018.02
2018-09-12T09:34:06.285Z,1018.00
2018-09-12T09:35:06.326Z,1017.98
2018-09-12T09:36:06.250Z,1017.97
2018-09-12T09:37:06.231Z,1018.02
2018-09-12T09:38:06.213Z,1018.00
2018-09-12T09:39:06.195Z,1017.97
2018-09-12T09:40:06.176Z,1017.96
2018-09-12T09:41:06.190Z,1018.04
2018-09-12T09:42:06.144Z,1018.09
2018-09-12T09:43:06.120Z,1018.08
2018-09-12T09:44:06.156Z,1018.12
2018-09-12T09:45:06.081Z,1018.08
2018-09-12T09:46:06.063Z,1018.06
2018-09-12T09:47:06.048Z,1018.08
2018-09-12T09:48:06.158Z,1018.10
2018-09-12T09:49:06.006Z,1018.10
2018-09-12T09:50:05.987Z,1018.10
2018-09-12T09:51:05.970Z,1018.09
2018-09-12T09:52:05.949Z,1018.20
2018-09-12T09:53:05.931Z,1018.26
2018-09-12T09:54:05.913Z,1018.26
2018-09-12T09:55:05.989Z,1018.33
2018-09-12T09:56:05.874Z,1018.29
2018-09-12T09:57:05.856Z,1018.34
2018-09-12T09:58:05.836Z,1018.39
2018-09-12T09:59:05.817Z,1018.40
2018-09-12T10:00:05.798Z,1018.38
2018-09-12T10:01:05.783Z,1018.39
2018-09-12T10:02:05.761Z,1018.44
2018-09-12T10:03:05.741Z,1018.43
2018-09-12T10:04:05.752Z,1018.54
2018-09-12T10:05:05.702Z,1018.53
2018-09-12T10:06:05.683Z,1018.54
2018-09-12T10:07:05.664Z,1018.61
2018-09-12T10:08:05.643Z,1018.58
2018-09-12T10:09:05.623Z,1018.58
2018-09-12T10:10:05.604Z,1018.62
2018-09-12T10:11:05.585Z,1018.61
2018-09-12T10:12:05.564Z,1018.68
2018-09-12T10:13:05.545Z,1018.68
2018-09-12T10:14:05.527Z,1018.75
2018-09-12T10:15:05.507Z,1018.78
2018-09-12T10:16:05.484Z,1018.77
2018-09-12T10:17:05.466Z,1018.75
2018-09-12T10:18:05.445Z,1018.76
2018-09-12T10:19:05.425Z,1018.75
2018-09-12T10:20:05.406Z,1018.75
2018-09-12T10:21:05.384Z,1018.78
2018-09-12T10:22:05.366Z,1018.80
2018-09-12T10:23:05.346Z,1018.83
2018-09-12T10:24:05.322Z,1018.75
2018-09-12T10:25:05.305Z,1018.75
2018-09-12T10:26:05.284Z,1018.77
2018-09-12T10:27:05.264Z,1018.77
2018-09-12T10:28:05.241Z,1018.79
2018-09-12T10:29:05.222Z,1018.81
2018-09-12T10:30:05.201Z,1018.78
2018-09-12T10:31:05.181Z,1018.78
2018-09-12T10:32:05.159Z,1018.82
2018-09-12T10:33:05.138Z,1018.81
2018-09-12T10:34:05.122Z,1018.79
2018-09-12T10:35:05.098Z,1018.82
2018-09-12T10:36:05.079Z,1018.83
2018-09-12T10:37:05.055Z,1018.87
2018-09-12T10:38:05.034Z,1018.81
2018-09-12T10:39:05.013Z,1018.82
2018-09-12T10:40:04.996Z,1018.87
2018-09-12T10:41:05.001Z,1018.84
2018-09-12T10:42:04.951Z,1018.86
2018-09-12T10:43:04.930Z,1018.82
2018-09-12T10:44:04.908Z,1018.84
2018-09-12T10:45:04.887Z,1018.86
2018-09-12T10:46:04.867Z,1018.88
2018-09-12T10:47:04.845Z,1018.89
2018-09-12T10:48:04.822Z,1018.88
2018-09-12T10:49:04.805Z,1018.89
2018-09-12T10:50:04.780Z,1018.87
2018-09-12T10:51:04.760Z,1018.86
2018-09-12T10:52:04.738Z,1018.85
2018-09-12T10:53:04.718Z,1018.86
2018-09-12T10:54:04.698Z,1018.85
2018-09-12T10:55:04.679Z,1018.81
2018-09-12T10:56:04.657Z,1018.83
2018-09-12T10:57:04.636Z,1018.86
2018-09-12T10:58:04.617Z,1018.83
2018-09-12T10:59:04.644Z,1018.83
2018-09-12T11:00:04.576Z,1018.79
2018-09-12T11:01:04.557Z,1018.82
2018-09-12T11:02:04.539Z,1018.85
2018-09-12T11:03:04.518Z,1018.84
2018-09-12T11:04:04.497Z,1018.83
2018-09-12T11:05:04.478Z,1018.87
2018-09-12T11:06:04.458Z,1018.85
2018-09-12T11:07:04.439Z,1018.84
2018-09-12T11:08:04.418Z,1018.83
2018-09-12T11:09:04.400Z,1018.80
2018-09-12T11:10:04.381Z,1018.81
2018-09-12T11:11:04.362Z,1018.84
2018-09-12T11:12:04.342Z,1018.84
2018-09-12T11:13:04.340Z,1018.78
2018-09-12T11:14:04.309Z,1018.84
2018-09-12T11:15:04.289Z,1018.81
2018-09-12T11:16:04.269Z,1018.83
2018-09-12T11:17:04.250Z,1018.88
2018-09-12T11:18:04.246Z,1018.85
2018-09-12T11:19:04.214Z,1018.85
2018-09-12T11:20:04.203Z,1018.84
2018-09-12T11:21:04.177Z,1018.87
2018-09-12T11:22:04.159Z,1018.89
2018-09-12T11:23:04.141Z,1018.86
2018-09-12T11:24:04.189Z,1018.86
2018-09-12T11:25:04.122Z,1018.86
2018-09-12T11:26:04.114Z,1018.88
2018-09-12T11:27:04.106Z,1018.87
2018-09-12T11:28:04.050Z,1018.84
2018-09-12T11:29:04.074Z,1018.83
2018-09-12T11:30:04.056Z,1018.81
2018-09-12T11:31:04.037Z,1018.84
2018-09-12T11:32:03.994Z,1018.85
2018-09-12T11:33:03.957Z,1018.91
2018-09-12T11:34:03.946Z,1018.88
2018-09-12T11:35:03.923Z,1018.90
2018-09-12T11:36:03.903Z,1018.92
2018-09-12T11:37:03.908Z,1018.90
2018-09-12T11:38:03.890Z,1018.90
2018-09-12T11:39:03.882Z,1018.91
2018-09-12T11:40:03.893Z,1018.89
2018-09-12T11:41:03.811Z,1018.91
2018-09-12T11:42:03.794Z,1018.97
2018-09-12T11:43:03.805Z,1019.00
2018-09-12T11:44:03.788Z,1019.02
2018-09-12T11:45:03.757Z,1019.04
2018-09-12T11:46:03.719Z,1019.04
2018-09-12T11:47:03.701Z,1019.08
2018-09-12T11:48:03.680Z,1019.04
2018-09-12T11:49:03.679Z,1019.07
2018-09-12T11:50:03.645Z,1019.03
2018-09-12T11:51:03.626Z,1019.06
2018-09-12T11:52:03.609Z,1019.06
2018-09-12T11:53:03.588Z,1019.07
2018-09-12T11:54:03.569Z,1019.07
2018-09-12T11:55:03.551Z,1019.13
2018-09-12T11:56:03.530Z,1019.08
2018-09-12T11:57:03.511Z,1019.05
2018-09-12T11:58:03.493Z,1019.04
2018-09-12T11:59:03.472Z,1019.08
2018-09-12T12:00:03.454Z,1019.13
2018-09-12T12:01:03.435Z,1019.16
2018-09-12T12:02:03.476Z,1019.16
2018-09-12T12:03:03.396Z,1019.18
2018-09-12T12:04:03.376Z,1019.22
2018-09-12T12:05:03.358Z,1019.23